Time;durP1;ratioP1;P1;durP2;ratioP2;P2;SDS_P1;SDS_P2;PMS_P1;PMS_P2;Temp;Humidity;BMP_temperature;BMP_pressure;BME280_temperature;BME280_humidity;BME280_pressure;Samples;Min_cycle;Max_cycle;Signal;HPM_P1;HPM_P2
2021/09/10 00:01:36;;;;;;;9.17;6.63;;;;;;;;;;783695;177;918330;-70
2021/09/10 00:04:02;;;;;;;9.33;6.40;;;;;;;;;;776491;177;925509;-69
2021/09/10 00:06:28;;;;;;;9.70;6.60;;;;;;;;;;789396;177;918664;-69
2021/09/10 00:08:54;;;;;;;7.00;6.30;;;;;;;;;;783805;177;919468;-69
2021/09/10 00:11:20;;;;;;;9.60;6.60;;;;;;;;;;785973;177;918990;-69
2021/09/10 00:13:46;;;;;;;8.60;6.10;;;;;;;;;;788948;177;915156;-69
2021/09/10 00:16:12;;;;;;;8.53;6.30;;;;;;;;;;782607;177;920884;-69
2021/09/10 00:18:37;;;;;;;9.40;6.77;;;;;;;;;;785937;177;919023;-69
2021/09/10 00:21:03;;;;;;;8.97;6.80;;;;;;;;;;785243;177;914683;-71
2021/09/10 00:23:29;;;;;;;8.60;7.10;;;;;;;;;;782966;177;915984;-69
2021/09/10 00:25:55;;;;;;;10.20;8.20;;;;;;;;;;780322;177;916143;-69
2021/09/10 00:28:23;;;;;;;7.13;5.80;;;;;;;;;;778487;179;918879;-69
2021/09/10 00:30:47;;;;;;;10.10;7.10;;;;;;;;;;780781;175;919494;-69
2021/09/10 00:33:12;;;;;;;8.15;6.15;;;;;;;;;;783872;177;918951;-69
2021/09/10 00:35:38;;;;;;;7.57;6.47;;;;;;;;;;787237;177;918344;-69
2021/09/10 00:38:04;;;;;;;7.78;5.82;;;;;;;;;;791941;177;919111;-69
2021/09/10 00:40:30;;;;;;;7.80;6.40;;;;;;;;;;783801;177;919505;-69
2021/09/10 00:42:56;;;;;;;10.40;6.33;;;;;;;;;;780377;177;918469;-69
2021/09/10 00:45:22;;;;;;;8.33;6.47;;;;;;;;;;790267;177;918201;-69
2021/09/10 00:47:48;;;;;;;11.13;8.07;;;;;;;;;;783233;176;918767;-69
2021/09/10 00:50:13;;;;;;;7.20;5.93;;;;;;;;;;779362;178;918402;-70
2021/09/10 00:52:40;;;;;;;8.43;6.07;;;;;;;;;;783625;178;925403;-69
2021/09/10 00:55:06;;;;;;;6.80;6.00;;;;;;;;;;782034;175;919742;-70
2021/09/10 00:57:32;;;;;;;14.70;6.60;;;;;;;;;;782632;177;918927;-69
2021/09/10 00:59:58;;;;;;;10.17;5.93;;;;;;;;;;781261;178;919357;-69
2021/09/10 01:02:24;;;;;;;7.62;6.30;;;;;;;;;;788837;176;918683;-69
2021/09/10 01:04:49;;;;;;;11.50;7.83;;;;;;;;;;781376;177;917873;-69
2021/09/10 01:07:15;;;;;;;7.60;6.17;;;;;;;;;;782490;177;919519;-69
2021/09/10 01:09:41;;;;;;;8.73;5.70;;;;;;;;;;787442;177;919150;-69
2021/09/10 01:12:07;;;;;;;9.50;6.47;;;;;;;;;;779954;177;920358;-69
2021/09/10 01:14:33;;;;;;;8.15;6.15;;;;;;;;;;779216;177;917420;-68
2021/09/10 01:16:59;;;;;;;8.60;6.30;;;;;;;;;;781377;177;916228;-69
2021/09/10 01:19:24;;;;;;;7.50;6.00;;;;;;;;;;771012;179;920551;-69
2021/09/10 01:21:50;;;;;;;10.77;6.90;;;;;;;;;;774684;179;919745;-69
2021/09/10 01:24:16;;;;;;;8.57;7.20;;;;;;;;;;772440;178;916444;-69
2021/09/10 01:26:42;;;;;;;7.93;5.43;;;;;;;;;;783066;178;919375;-69
2021/09/10 01:29:08;;;;;;;7.00;6.30;;;;;;;;;;777158;177;919052;-69
2021/09/10 01:31:34;;;;;;;11.10;6.57;;;;;;;;;;783195;177;919129;-69
2021/09/10 01:34:00;;;;;;;8.90;6.67;;;;;;;;;;787007;177;918845;-68
2021/09/10 01:36:25;;;;;;;7.10;5.83;;;;;;;;;;784550;177;918585;-69
2021/09/10 01:38:51;;;;;;;7.37;6.20;;;;;;;;;;785933;177;919230;-69
2021/09/10 01:41:17;;;;;;;8.50;6.67;;;;;;;;;;791483;177;918993;-69
2021/09/10 01:43:43;;;;;;;12.60;7.80;;;;;;;;;;784745;177;919860;-69
2021/09/10 01:46:10;;;;;;;14.85;8.50;;;;;;;;;;784770;177;920210;-69
2021/09/10 01:48:35;;;;;;;8.80;6.70;;;;;;;;;;783446;178;918085;-68
2021/09/10 01:51:01;;;;;;;9.00;7.05;;;;;;;;;;788811;175;919386;-69
2021/09/10 01:53:30;;;;;;;9.77;7.00;;;;;;;;;;781435;177;918702;-71
2021/09/10 01:55:56;;;;;;;8.63;7.33;;;;;;;;;;787642;176;919226;-69
2021/09/10 01:58:22;;;;;;;12.43;7.20;;;;;;;;;;789955;177;881821;-69
2021/09/10 02:00:50;;;;;;;9.30;6.87;;;;;;;;;;776348;177;1759104;-69
2021/09/10 02:03:14;;;;;;;8.93;6.70;;;;;;;;;;783928;177;918769;-70
2021/09/10 02:05:40;;;;;;;9.17;7.00;;;;;;;;;;787061;177;918494;-69
2021/09/10 02:08:06;;;;;;;9.70;7.00;;;;;;;;;;782959;178;1001012;-69
2021/09/10 02:10:32;;;;;;;8.93;6.60;;;;;;;;;;783076;177;916270;-69
2021/09/10 02:12:57;;;;;;;12.13;7.47;;;;;;;;;;782153;178;1016712;-68
2021/09/10 02:15:23;;;;;;;6.53;5.80;;;;;;;;;;788739;177;916112;-69
2021/09/10 02:17:49;;;;;;;7.10;5.25;;;;;;;;;;783405;177;916029;-69
2021/09/10 02:20:15;;;;;;;12.23;6.37;;;;;;;;;;780221;177;919470;-68
2021/09/10 02:22:41;;;;;;;10.67;6.20;;;;;;;;;;788103;177;918780;-68
2021/09/10 02:25:07;;;;;;;7.93;6.33;;;;;;;;;;782466;177;918943;-70
2021/09/10 02:27:33;;;;;;;7.50;5.95;;;;;;;;;;777612;177;918593;-68
2021/09/10 02:29:59;;;;;;;9.97;6.00;;;;;;;;;;788315;177;919354;-68
2021/09/10 02:32:24;;;;;;;12.77;6.47;;;;;;;;;;785611;177;919329;-68
2021/09/10 02:34:50;;;;;;;10.33;6.33;;;;;;;;;;781885;177;918802;-68
2021/09/10 02:37:16;;;;;;;7.23;6.50;;;;;;;;;;779598;178;936813;-68
2021/09/10 02:39:42;;;;;;;11.40;6.95;;;;;;;;;;787840;177;917983;-68
2021/09/10 02:42:08;;;;;;;9.20;6.47;;;;;;;;;;780105;177;918576;-69
2021/09/10 02:44:34;;;;;;;9.80;5.93;;;;;;;;;;784477;178;919782;-68
2021/09/10 02:46:59;;;;;;;8.37;6.50;;;;;;;;;;786951;177;918994;-68
2021/09/10 02:49:25;;;;;;;8.00;5.87;;;;;;;;;;783997;177;915311;-69
2021/09/10 02:51:51;;;;;;;10.83;6.43;;;;;;;;;;786155;176;920117;-69
2021/09/10 02:54:17;;;;;;;10.60;6.90;;;;;;;;;;793148;177;918194;-68
2021/09/10 02:56:43;;;;;;;9.53;6.47;;;;;;;;;;788264;176;915837;-68
2021/09/10 02:59:09;;;;;;;10.13;5.80;;;;;;;;;;786628;176;916260;-68
2021/09/10 03:01:35;;;;;;;13.55;6.47;;;;;;;;;;780367;177;917441;-67
2021/09/10 03:04:00;;;;;;;6.93;5.60;;;;;;;;;;770284;180;914913;-68
2021/09/10 03:06:26;;;;;;;10.93;6.27;;;;;;;;;;773789;181;918901;-68
2021/09/10 03:08:52;;;;;;;7.75;5.57;;;;;;;;;;770604;179;918303;-68
2021/09/10 03:11:18;;;;;;;9.10;6.70;;;;;;;;;;790679;177;919339;-68
2021/09/10 03:13:44;;;;;;;8.40;6.40;;;;;;;;;;780854;177;940641;-67
2021/09/10 03:16:10;;;;;;;12.93;6.13;;;;;;;;;;782431;177;918714;-68
2021/09/10 03:18:35;;;;;;;8.93;6.70;;;;;;;;;;786198;177;918726;-68
2021/09/10 03:21:01;;;;;;;7.97;6.57;;;;;;;;;;780676;177;919318;-68
2021/09/10 03:23:27;;;;;;;9.00;7.07;;;;;;;;;;784593;177;919158;-68
2021/09/10 03:25:53;;;;;;;20.47;7.83;;;;;;;;;;789716;177;918662;-68
2021/09/10 03:28:19;;;;;;;7.70;6.60;;;;;;;;;;784758;177;919523;-68
2021/09/10 03:30:45;;;;;;;9.98;6.30;;;;;;;;;;782529;177;919095;-68
2021/09/10 03:33:10;;;;;;;8.50;5.90;;;;;;;;;;780167;177;918290;-67
2021/09/10 03:35:36;;;;;;;6.93;5.75;;;;;;;;;;786669;177;939067;-68
2021/09/10 03:38:02;;;;;;;7.90;6.07;;;;;;;;;;783533;177;919181;-67
2021/09/10 03:40:34;;;;;;;8.30;6.20;;;;;;;;;;776146;178;920225;-67
2021/09/10 03:42:54;;;;;;;7.70;6.60;;;;;;;;;;788087;177;919290;-68
2021/09/10 03:45:20;;;;;;;8.23;6.60;;;;;;;;;;786194;177;916209;-68
2021/09/10 03:47:45;;;;;;;10.75;6.82;;;;;;;;;;783791;177;1020580;-68
2021/09/10 03:50:11;;;;;;;10.97;6.90;;;;;;;;;;786096;177;1371550;-69
2021/09/10 03:52:37;;;;;;;10.13;7.43;;;;;;;;;;784173;177;918538;-71
2021/09/10 03:55:03;;;;;;;10.23;6.95;;;;;;;;;;785229;177;896206;-70
2021/09/10 03:57:29;;;;;;;8.20;6.27;;;;;;;;;;782876;177;918641;-69
2021/09/10 03:59:55;;;;;;;7.90;6.40;;;;;;;;;;786234;175;633054;-70
2021/09/10 04:02:21;;;;;;;8.57;6.47;;;;;;;;;;774850;178;633377;-70
2021/09/10 04:04:47;;;;;;;11.97;6.60;;;;;;;;;;776536;178;918267;-69
2021/09/10 04:07:12;;;;;;;8.70;7.17;;;;;;;;;;781915;178;628859;-71
2021/09/10 04:09:38;;;;;;;12.77;7.10;;;;;;;;;;783381;178;630063;-70
2021/09/10 04:12:04;;;;;;;10.57;7.53;;;;;;;;;;786393;177;917881;-69
2021/09/10 04:14:30;;;;;;;9.10;7.00;;;;;;;;;;790175;177;917486;-69
2021/09/10 04:16:56;;;;;;;9.80;6.97;;;;;;;;;;784706;177;918621;-69
2021/09/10 04:19:22;;;;;;;27.40;8.30;;;;;;;;;;784455;177;918258;-70
2021/09/10 04:21:49;;;;;;;13.43;8.73;;;;;;;;;;785858;177;919288;-68
2021/09/10 04:24:17;;;;;;;14.23;9.70;;;;;;;;;;784105;175;619468;-69
2021/09/10 04:26:40;;;;;;;15.53;10.10;;;;;;;;;;778449;179;632083;-69
2021/09/10 04:29:07;;;;;;;15.90;10.73;;;;;;;;;;778077;180;618100;-69
2021/09/10 04:31:32;;;;;;;16.63;12.20;;;;;;;;;;790711;177;633774;-69
2021/09/10 04:33:58;;;;;;;16.80;9.50;;;;;;;;;;786431;177;633453;-69
2021/09/10 04:36:24;;;;;;;16.40;11.15;;;;;;;;;;780849;177;920040;-69
2021/09/10 04:38:49;;;;;;;16.10;11.70;;;;;;;;;;788007;177;918639;-69
2021/09/10 04:41:16;;;;;;;16.25;11.35;;;;;;;;;;784138;177;944579;-69
2021/09/10 04:43:42;;;;;;;25.58;12.45;;;;;;;;;;783928;177;915304;-70
2021/09/10 04:46:07;;;;;;;21.23;14.77;;;;;;;;;;789326;177;918802;-69
2021/09/10 04:48:33;;;;;;;18.03;11.27;;;;;;;;;;783415;177;916788;-70
2021/09/10 04:50:59;;;;;;;19.60;11.97;;;;;;;;;;784466;177;915227;-70
2021/09/10 04:53:25;;;;;;;16.30;10.23;;;;;;;;;;782697;176;918655;-69
2021/09/10 04:55:51;;;;;;;18.50;13.00;;;;;;;;;;780405;177;918317;-69
2021/09/10 04:58:17;;;;;;;17.17;11.60;;;;;;;;;;779488;177;1112075;-69
2021/09/10 05:00:43;;;;;;;17.67;12.10;;;;;;;;;;782118;177;921971;-69
2021/09/10 05:03:09;;;;;;;14.65;9.65;;;;;;;;;;787246;177;919537;-69
2021/09/10 05:05:34;;;;;;;15.07;9.90;;;;;;;;;;780699;177;918063;-69
2021/09/10 05:08:00;;;;;;;16.80;10.40;;;;;;;;;;783429;176;943957;-69
2021/09/10 05:10:26;;;;;;;16.20;8.70;;;;;;;;;;787059;177;918910;-69
2021/09/10 05:12:52;;;;;;;12.97;10.40;;;;;;;;;;784651;177;919391;-69
2021/09/10 05:15:18;;;;;;;16.07;11.70;;;;;;;;;;784317;177;917921;-69
2021/09/10 05:17:44;;;;;;;18.00;10.17;;;;;;;;;;786923;177;918895;-69
2021/09/10 05:20:10;;;;;;;15.00;10.33;;;;;;;;;;789738;175;918432;-70
2021/09/10 05:22:37;;;;;;;15.27;10.77;;;;;;;;;;784856;177;918654;-70
2021/09/10 05:25:02;;;;;;;19.13;12.20;;;;;;;;;;782507;177;918496;-69
2021/09/10 05:27:28;;;;;;;17.52;12.07;;;;;;;;;;787622;177;918728;-70
2021/09/10 05:29:54;;;;;;;16.83;11.63;;;;;;;;;;787402;177;919880;-69
2021/09/10 05:32:19;;;;;;;18.80;11.77;;;;;;;;;;783689;177;1021762;-69
2021/09/10 05:34:45;;;;;;;17.08;13.50;;;;;;;;;;786124;177;1247025;-69
2021/09/10 05:37:11;;;;;;;22.60;13.17;;;;;;;;;;785789;177;918973;-69
2021/09/10 05:39:37;;;;;;;21.25;13.93;;;;;;;;;;783747;177;919371;-69
2021/09/10 05:42:03;;;;;;;22.23;13.50;;;;;;;;;;783844;177;918826;-69
2021/09/10 05:44:29;;;;;;;20.40;12.63;;;;;;;;;;780279;174;918867;-69
2021/09/10 05:46:55;;;;;;;17.62;13.43;;;;;;;;;;780594;176;919171;-69
2021/09/10 05:49:21;;;;;;;19.53;14.20;;;;;;;;;;780838;177;920633;-69
2021/09/10 05:51:46;;;;;;;28.90;19.00;;;;;;;;;;790426;177;918995;-70
2021/09/10 05:54:12;;;;;;;36.43;20.93;;;;;;;;;;779362;177;919168;-71
2021/09/10 05:56:38;;;;;;;35.90;20.37;;;;;;;;;;749284;177;5848488;-69
2021/09/10 05:59:04;;;;;;;26.07;19.00;;;;;;;;;;782471;177;913806;-70
2021/09/10 06:01:30;;;;;;;30.13;20.50;;;;;;;;;;785379;176;905706;-71
2021/09/10 06:03:56;;;;;;;31.10;20.57;;;;;;;;;;780631;177;919240;-72
2021/09/10 06:06:21;;;;;;;30.77;17.50;;;;;;;;;;787801;177;919271;-71
2021/09/10 06:08:47;;;;;;;26.57;17.63;;;;;;;;;;785867;177;927827;-70
2021/09/10 06:11:13;;;;;;;18.80;14.83;;;;;;;;;;783033;176;1264231;-71
2021/09/10 06:13:39;;;;;;;19.20;14.37;;;;;;;;;;783869;177;919214;-72
2021/09/10 06:16:05;;;;;;;21.90;13.07;;;;;;;;;;786940;177;927761;-70
2021/09/10 06:18:31;;;;;;;14.90;11.00;;;;;;;;;;786198;177;918279;-70
2021/09/10 06:20:57;;;;;;;18.97;11.20;;;;;;;;;;782610;177;918537;-70
2021/09/10 06:23:23;;;;;;;36.90;12.40;;;;;;;;;;790278;177;919492;-70
2021/09/10 06:25:48;;;;;;;12.40;9.40;;;;;;;;;;779068;177;919679;-70
2021/09/10 06:28:14;;;;;;;13.40;9.52;;;;;;;;;;771217;180;918911;-70
2021/09/10 06:30:40;;;;;;;19.30;11.17;;;;;;;;;;773620;179;918877;-71
2021/09/10 06:33:06;;;;;;;12.63;9.10;;;;;;;;;;775722;180;919471;-70
2021/09/10 06:35:32;;;;;;;12.80;8.77;;;;;;;;;;775511;180;919538;-70
2021/09/10 06:37:57;;;;;;;14.57;8.23;;;;;;;;;;785884;177;919217;-71
2021/09/10 06:40:23;;;;;;;13.60;9.97;;;;;;;;;;778453;180;919028;-71
2021/09/10 06:42:50;;;;;;;9.87;7.57;;;;;;;;;;769862;179;918907;-70
2021/09/10 06:45:15;;;;;;;11.60;7.83;;;;;;;;;;783331;177;924095;-70
2021/09/10 06:47:41;;;;;;;11.60;7.60;;;;;;;;;;787595;177;1019471;-70
2021/09/10 06:50:09;;;;;;;10.30;6.83;;;;;;;;;;780639;177;921225;-72
2021/09/10 06:52:33;;;;;;;11.20;6.63;;;;;;;;;;776793;178;918921;-71
2021/09/10 06:54:59;;;;;;;9.97;6.83;;;;;;;;;;788505;178;915196;-72
2021/09/10 06:57:27;;;;;;;11.63;7.73;;;;;;;;;;782172;177;919093;-72
2021/09/10 06:59:50;;;;;;;7.57;6.37;;;;;;;;;;784159;178;918932;-72
2021/09/10 07:02:17;;;;;;;13.10;7.43;;;;;;;;;;782274;178;916790;-73
2021/09/10 07:04:42;;;;;;;11.70;6.80;;;;;;;;;;780563;178;914282;-73
2021/09/10 07:07:08;;;;;;;10.70;6.70;;;;;;;;;;770233;180;916337;-73
2021/09/10 07:09:34;;;;;;;12.50;5.73;;;;;;;;;;782271;177;915647;-75
2021/09/10 07:12:00;;;;;;;8.30;6.20;;;;;;;;;;786969;177;918759;-74
2021/09/10 07:14:26;;;;;;;8.20;4.05;;;;;;;;;;781765;177;919309;-75
2021/09/10 07:16:52;;;;;;;7.50;4.40;;;;;;;;;;780212;178;918808;-73
2021/09/10 07:19:17;;;;;;;10.30;4.13;;;;;;;;;;789079;177;918561;-72
2021/09/10 07:21:43;;;;;;;10.80;4.33;;;;;;;;;;778960;176;918861;-74
2021/09/10 07:24:09;;;;;;;6.40;4.03;;;;;;;;;;786117;177;918610;-74
2021/09/10 07:26:35;;;;;;;9.77;4.65;;;;;;;;;;786373;177;919568;-74
2021/09/10 07:29:01;;;;;;;6.50;4.10;;;;;;;;;;784259;177;918897;-74
2021/09/10 07:31:27;;;;;;;9.40;3.40;;;;;;;;;;781756;176;921142;-74
2021/09/10 07:33:52;;;;;;;9.63;4.87;;;;;;;;;;783991;177;918348;-73
2021/09/10 07:36:20;;;;;;;10.70;4.83;;;;;;;;;;788575;177;918548;-73
2021/09/10 07:38:44;;;;;;;9.63;4.50;;;;;;;;;;783874;176;919632;-74
2021/09/10 07:41:10;;;;;;;8.40;3.70;;;;;;;;;;784763;177;1038323;-74
2021/09/10 07:43:36;;;;;;;7.20;3.90;;;;;;;;;;790158;175;921150;-74
2021/09/10 07:46:02;;;;;;;7.10;4.27;;;;;;;;;;779287;176;921643;-74
2021/09/10 07:48:27;;;;;;;12.50;4.17;;;;;;;;;;785038;177;921250;-73
2021/09/10 07:50:53;;;;;;;11.70;5.33;;;;;;;;;;787829;177;905686;-74
2021/09/10 07:53:19;;;;;;;8.30;3.30;;;;;;;;;;786338;177;919570;-74
2021/09/10 07:55:45;;;;;;;5.87;4.30;;;;;;;;;;779352;177;1550426;-74
2021/09/10 07:58:11;;;;;;;9.10;3.50;;;;;;;;;;783414;177;913689;-72
2021/09/10 08:00:37;;;;;;;4.53;3.70;;;;;;;;;;774130;179;915680;-74
2021/09/10 08:03:02;;;;;;;8.40;4.33;;;;;;;;;;784549;176;915094;-73
2021/09/10 08:05:28;;;;;;;7.20;4.07;;;;;;;;;;783310;177;915760;-75
2021/09/10 08:07:54;;;;;;;9.13;3.50;;;;;;;;;;790597;177;916853;-74
2021/09/10 08:10:20;;;;;;;9.30;4.10;;;;;;;;;;782851;177;1120957;-73
2021/09/10 08:12:46;;;;;;;5.70;3.75;;;;;;;;;;783783;177;914689;-73
2021/09/10 08:15:12;;;;;;;9.73;3.80;;;;;;;;;;786780;177;915908;-73
2021/09/10 08:17:38;;;;;;;9.00;4.57;;;;;;;;;;782851;177;919710;-73
2021/09/10 08:20:04;;;;;;;8.13;3.97;;;;;;;;;;783203;177;917769;-74
2021/09/10 08:22:31;;;;;;;12.45;4.07;;;;;;;;;;787208;177;976441;-71
2021/09/10 08:24:57;;;;;;;10.47;3.20;;;;;;;;;;778533;175;915092;-73
2021/09/10 08:27:23;;;;;;;5.63;3.40;;;;;;;;;;779504;176;920171;-75
2021/09/10 08:29:48;;;;;;;5.93;3.70;;;;;;;;;;785255;177;910889;-73
2021/09/10 08:32:14;;;;;;;6.03;3.67;;;;;;;;;;787913;177;871227;-75
2021/09/10 08:34:40;;;;;;;7.13;3.70;;;;;;;;;;781660;177;918720;-74
2021/09/10 08:37:06;;;;;;;8.27;3.57;;;;;;;;;;785442;177;916576;-73
2021/09/10 08:39:32;;;;;;;5.23;3.70;;;;;;;;;;788702;176;916212;-73
2021/09/10 08:41:58;;;;;;;5.57;4.00;;;;;;;;;;781168;177;916371;-77
2021/09/10 08:44:23;;;;;;;9.20;4.30;;;;;;;;;;780971;177;1016479;-73
2021/09/10 08:46:49;;;;;;;10.10;3.20;;;;;;;;;;790313;177;915917;-73
2021/09/10 08:49:15;;;;;;;10.73;4.50;;;;;;;;;;785051;176;915265;-75
2021/09/10 08:51:41;;;;;;;7.43;4.33;;;;;;;;;;785581;176;916685;-72
2021/09/10 08:54:07;;;;;;;21.00;4.53;;;;;;;;;;784039;177;915169;-74
2021/09/10 08:56:33;;;;;;;6.50;3.83;;;;;;;;;;788258;177;917220;-75
2021/09/10 08:59:04;;;;;;;6.50;2.87;;;;;;;;;;769220;178;915656;-76
2021/09/10 09:01:30;;;;;;;5.70;3.53;;;;;;;;;;784903;177;915656;-74
2021/09/10 09:03:56;;;;;;;6.83;4.53;;;;;;;;;;789392;177;916097;-75
2021/09/10 09:06:28;;;;;;;6.53;3.10;;;;;;;;;;771364;176;918995;-74
2021/09/10 09:08:54;;;;;;;11.90;3.33;;;;;;;;;;784558;176;914434;-75
2021/09/10 09:11:20;;;;;;;6.25;3.25;;;;;;;;;;783931;177;919236;-75
2021/09/10 09:13:45;;;;;;;7.53;3.00;;;;;;;;;;788088;178;918897;-77
2021/09/10 09:16:20;;;;;;;6.70;3.30;;;;;;;;;;781701;178;918032;-73
2021/09/10 09:18:50;;;;;;;6.03;3.67;;;;;;;;;;782405;177;918032;-76
2021/09/10 09:21:15;;;;;;;10.30;4.43;;;;;;;;;;783804;177;919554;-75
2021/09/10 09:23:41;;;;;;;7.17;3.60;;;;;;;;;;789182;177;917399;-76
2021/09/10 09:26:13;;;;;;;5.83;3.50;;;;;;;;;;783574;177;817328;-77
2021/09/10 09:28:39;;;;;;;8.03;3.63;;;;;;;;;;782227;177;868462;-76
2021/09/10 09:31:04;;;;;;;7.00;3.80;;;;;;;;;;782368;177;919059;-78
2021/09/10 09:33:30;;;;;;;13.13;4.27;;;;;;;;;;790238;177;918669;-74
2021/09/10 09:35:57;;;;;;;5.50;3.50;;;;;;;;;;784772;177;921041;-75
2021/09/10 09:38:24;;;;;;;11.80;3.70;;;;;;;;;;781103;177;921240;-74
2021/09/10 09:40:52;;;;;;;8.10;3.83;;;;;;;;;;787130;177;918843;-75
2021/09/10 09:43:18;;;;;;;5.73;4.10;;;;;;;;;;781815;177;920013;-77
2021/09/10 09:45:44;;;;;;;5.17;3.30;;;;;;;;;;781724;177;930329;-77
2021/09/10 09:48:12;;;;;;;5.53;3.63;;;;;;;;;;782827;177;935026;-80
2021/09/10 09:50:38;;;;;;;5.90;3.83;;;;;;;;;;772335;179;1379924;-79
2021/09/10 09:53:05;;;;;;;9.90;3.30;;;;;;;;;;787274;177;816712;-78
2021/09/10 09:55:33;;;;;;;8.23;3.87;;;;;;;;;;783724;177;934558;-83
2021/09/10 09:57:58;;;;;;;6.57;3.60;;;;;;;;;;789694;177;918359;-76
2021/09/10 10:00:25;;;;;;;7.13;3.30;;;;;;;;;;778676;175;910222;-82
2021/09/10 10:02:50;;;;;;;6.73;3.67;;;;;;;;;;782232;176;930921;-79
2021/09/10 10:05:16;;;;;;;9.63;3.97;;;;;;;;;;788721;178;905669;-79
2021/09/10 10:07:48;;;;;;;6.40;4.30;;;;;;;;;;787089;176;918479;-79
2021/09/10 10:10:13;;;;;;;7.17;3.67;;;;;;;;;;782809;176;918152;-79
2021/09/10 10:12:40;;;;;;;6.27;3.90;;;;;;;;;;783912;176;935951;-81
2021/09/10 10:15:12;;;;;;;4.70;3.40;;;;;;;;;;789509;177;919456;-79
2021/09/10 10:17:40;;;;;;;8.10;3.90;;;;;;;;;;775531;179;918793;-79
2021/09/10 10:20:05;;;;;;;12.90;4.20;;;;;;;;;;772423;180;1021501;-79
2021/09/10 10:22:31;;;;;;;9.00;4.07;;;;;;;;;;781603;177;918279;-80
2021/09/10 10:24:58;;;;;;;8.90;3.50;;;;;;;;;;786773;177;918204;-77
2021/09/10 10:27:30;;;;;;;8.37;3.60;;;;;;;;;;783338;177;918379;-80
2021/09/10 10:29:54;;;;;;;8.70;3.60;;;;;;;;;;783558;177;816701;-80
2021/09/10 10:32:27;;;;;;;5.90;3.53;;;;;;;;;;789833;176;918684;-80
2021/09/10 10:34:58;;;;;;;6.53;3.63;;;;;;;;;;784854;178;917792;-80
2021/09/10 10:37:31;;;;;;;7.43;3.37;;;;;;;;;;782836;176;1026922;-79
2021/09/10 10:39:58;;;;;;;7.63;3.50;;;;;;;;;;784623;177;918137;-78
2021/09/10 10:42:26;;;;;;;5.40;3.28;;;;;;;;;;779183;177;919592;-76
2021/09/10 10:44:53;;;;;;;9.57;3.53;;;;;;;;;;787832;177;914189;-79
2021/09/10 10:47:20;;;;;;;6.10;3.50;;;;;;;;;;784056;177;923409;-79
2021/09/10 10:49:47;;;;;;;10.73;3.70;;;;;;;;;;781843;177;917519;-77
2021/09/10 10:52:19;;;;;;;5.90;3.53;;;;;;;;;;782875;177;876968;-77
2021/09/10 10:54:46;;;;;;;10.10;3.80;;;;;;;;;;781530;176;913183;-79
2021/09/10 10:57:14;;;;;;;13.33;3.60;;;;;;;;;;785731;177;721808;-79
2021/09/10 10:59:40;;;;;;;10.90;3.17;;;;;;;;;;775002;179;928811;-78
2021/09/10 11:02:12;;;;;;;5.90;3.67;;;;;;;;;;778014;177;809389;-81
2021/09/10 11:04:39;;;;;;;8.70;3.87;;;;;;;;;;776055;179;812008;-80
2021/09/10 11:07:05;;;;;;;8.85;4.43;;;;;;;;;;781494;177;919585;-78
2021/09/10 11:09:33;;;;;;;8.33;3.90;;;;;;;;;;778785;179;918740;-77
2021/09/10 11:11:59;;;;;;;12.77;4.23;;;;;;;;;;786948;176;917371;-76
2021/09/10 11:14:30;;;;;;;6.67;3.73;;;;;;;;;;786518;177;918589;-78
2021/09/10 11:17:13;;;;;;;8.73;3.93;;;;;;;;;;783341;177;919384;-77
2021/09/10 11:19:45;;;;;;;11.40;4.00;;;;;;;;;;784671;178;1035439;-80
2021/09/10 11:22:10;;;;;;;5.20;4.00;;;;;;;;;;783908;176;917889;-76
2021/09/10 11:24:37;;;;;;;6.57;3.57;;;;;;;;;;787760;175;917665;-75
2021/09/10 11:27:04;;;;;;;6.37;3.93;;;;;;;;;;784751;177;919498;-80
2021/09/10 11:29:35;;;;;;;10.37;4.30;;;;;;;;;;781033;176;947152;-79
2021/09/10 11:32:01;;;;;;;4.30;3.30;;;;;;;;;;781329;177;918650;-80
2021/09/10 11:34:32;;;;;;;11.70;3.87;;;;;;;;;;784645;179;918467;-74
2021/09/10 11:37:01;;;;;;;8.87;3.63;;;;;;;;;;783770;177;918289;-75
2021/09/10 11:39:28;;;;;;;9.70;3.50;;;;;;;;;;784419;177;919116;-78
2021/09/10 11:41:54;;;;;;;6.83;3.63;;;;;;;;;;786198;177;916602;-78
2021/09/10 11:44:21;;;;;;;8.63;3.77;;;;;;;;;;790510;177;845595;-76
2021/09/10 11:46:47;;;;;;;6.27;3.40;;;;;;;;;;785029;177;855511;-78
2021/09/10 11:49:17;;;;;;;5.20;3.53;;;;;;;;;;786548;177;815084;-78
2021/09/10 11:51:43;;;;;;;9.90;4.10;;;;;;;;;;782980;177;918773;-81
2021/09/10 11:54:10;;;;;;;11.77;3.57;;;;;;;;;;786343;173;917300;-76
2021/09/10 11:56:36;;;;;;;6.07;2.90;;;;;;;;;;776203;180;884250;-80
2021/09/10 11:59:02;;;;;;;8.70;3.60;;;;;;;;;;768450;180;1022684;-80
2021/09/10 12:01:29;;;;;;;9.43;3.37;;;;;;;;;;786658;177;918479;-76
2021/09/10 12:03:59;;;;;;;7.10;3.30;;;;;;;;;;784722;177;918111;-79
2021/09/10 12:06:26;;;;;;;6.17;3.70;;;;;;;;;;776035;177;1941017;-82
2021/09/10 12:08:58;;;;;;;6.35;3.60;;;;;;;;;;782765;178;919646;-77
2021/09/10 12:11:28;;;;;;;7.30;3.10;;;;;;;;;;782778;175;892165;-78
2021/09/10 12:13:55;;;;;;;5.83;3.10;;;;;;;;;;780408;177;957733;-82
2021/09/10 12:16:21;;;;;;;9.07;3.80;;;;;;;;;;783889;177;918356;-77
2021/09/10 12:19:05;;;;;;;7.40;3.10;;;;;;;;;;784915;177;919223;-81
2021/09/10 12:21:31;;;;;;;8.48;3.10;;;;;;;;;;781582;178;919516;-80
2021/09/10 12:24:03;;;;;;;7.40;2.93;;;;;;;;;;791093;176;919187;-79
2021/09/10 12:26:29;;;;;;;5.93;3.10;;;;;;;;;;782045;177;918691;-79
2021/09/10 12:28:55;;;;;;;5.53;3.13;;;;;;;;;;783690;176;812613;-79
2021/09/10 12:31:23;;;;;;;12.93;3.20;;;;;;;;;;785911;177;925922;-78
2021/09/10 12:33:48;;;;;;;7.97;4.20;;;;;;;;;;776286;180;918449;-78
2021/09/10 12:36:16;;;;;;;6.47;3.50;;;;;;;;;;788986;177;919093;-75
2021/09/10 12:38:43;;;;;;;4.97;2.90;;;;;;;;;;785520;177;920587;-79
2021/09/10 12:41:09;;;;;;;5.10;3.10;;;;;;;;;;790728;177;672380;-80
2021/09/10 12:43:34;;;;;;;6.23;3.07;;;;;;;;;;782593;177;1557283;-75
2021/09/10 12:46:04;;;;;;;4.63;3.00;;;;;;;;;;784261;177;910661;-78
2021/09/10 12:48:30;;;;;;;4.93;3.50;;;;;;;;;;782884;177;917526;-76
2021/09/10 12:50:56;;;;;;;6.67;2.73;;;;;;;;;;785117;175;915843;-77
2021/09/10 12:53:24;;;;;;;8.13;3.60;;;;;;;;;;774226;179;919362;-82
2021/09/10 12:55:50;;;;;;;4.37;2.67;;;;;;;;;;772416;180;917906;-79
2021/09/10 12:58:17;;;;;;;5.20;3.13;;;;;;;;;;786227;177;1017986;-78
2021/09/10 13:00:45;;;;;;;5.03;3.50;;;;;;;;;;773218;178;888758;-80
2021/09/10 13:03:14;;;;;;;7.05;3.10;;;;;;;;;;783640;177;919852;-78
2021/09/10 13:05:41;;;;;;;6.90;3.00;;;;;;;;;;781862;177;934926;-78
2021/09/10 13:08:07;;;;;;;6.70;3.90;;;;;;;;;;788468;177;919175;-76
2021/09/10 13:10:35;;;;;;;6.13;3.17;;;;;;;;;;784841;176;971802;-78
2021/09/10 13:13:00;;;;;;;8.10;3.60;;;;;;;;;;780954;177;918629;-78
2021/09/10 13:15:26;;;;;;;5.10;2.70;;;;;;;;;;779074;177;814111;-79
2021/09/10 13:17:52;;;;;;;5.73;2.70;;;;;;;;;;768668;182;643187;-80
2021/09/10 13:20:18;;;;;;;6.73;2.90;;;;;;;;;;768265;182;621219;-79
2021/09/10 13:22:45;;;;;;;6.90;2.67;;;;;;;;;;772234;182;816691;-80
2021/09/10 13:25:11;;;;;;;5.83;3.53;;;;;;;;;;770738;182;691652;-79
2021/09/10 13:27:38;;;;;;;6.90;3.67;;;;;;;;;;762403;182;915221;-77
2021/09/10 13:30:07;;;;;;;8.93;3.93;;;;;;;;;;761546;180;915367;-79
2021/09/10 13:32:33;;;;;;;5.47;2.90;;;;;;;;;;776361;180;813675;-77
2021/09/10 13:34:59;;;;;;;11.10;4.83;;;;;;;;;;772605;178;813588;-79
2021/09/10 13:37:25;;;;;;;5.97;3.60;;;;;;;;;;774016;179;813001;-76
2021/09/10 13:39:50;;;;;;;6.57;3.50;;;;;;;;;;779083;180;878559;-77
2021/09/10 13:42:16;;;;;;;6.13;3.47;;;;;;;;;;776762;180;919294;-78
2021/09/10 13:44:42;;;;;;;8.53;3.20;;;;;;;;;;770452;180;920678;-79
2021/09/10 13:47:09;;;;;;;5.83;2.90;;;;;;;;;;771653;179;918182;-76
2021/09/10 13:49:35;;;;;;;11.10;3.23;;;;;;;;;;775367;180;1853680;-76
2021/09/10 13:52:02;;;;;;;5.70;2.83;;;;;;;;;;770257;179;919450;-78
2021/09/10 13:54:28;;;;;;;7.33;2.97;;;;;;;;;;774608;179;918364;-77
2021/09/10 13:56:53;;;;;;;4.93;3.63;;;;;;;;;;779251;180;918198;-79
2021/09/10 13:59:20;;;;;;;9.93;2.80;;;;;;;;;;769967;179;919269;-84
2021/09/10 14:07:31;;;;;;;12.80;4.23;;;;;;;;;;773691;180;916297;-77
2021/09/10 14:09:57;;;;;;;5.73;3.00;;;;;;;;;;772930;179;819497;-77
2021/09/10 14:12:23;;;;;;;4.70;3.27;;;;;;;;;;771443;179;918715;-79
2021/09/10 14:14:51;;;;;;;8.63;3.50;;;;;;;;;;779179;180;816413;-76
2021/09/10 14:17:17;;;;;;;4.57;3.17;;;;;;;;;;772141;180;918233;-78
2021/09/10 14:19:43;;;;;;;6.03;3.00;;;;;;;;;;770771;180;918649;-77
2021/09/10 14:22:11;;;;;;;9.33;2.93;;;;;;;;;;778857;180;919901;-77
2021/09/10 14:24:39;;;;;;;9.73;3.93;;;;;;;;;;773592;180;918333;-77